Time;durP1;ratioP1;P1;durP2;ratioP2;P2;SDS_P1;SDS_P2;PMS_P1;PMS_P2;Temp;Humidity;BMP_temperature;BMP_pressure;BME280_temperature;BME280_humidity;BME280_pressure;Samples;Min_cycle;Max_cycle;Signal;HPM_P1;HPM_P2
2022/12/04 00:00:39;;;;;;;110.90;44.95;;;;;;;0.36;81.88;101682.45;1700222;83;20961;-77
2022/12/04 00:03:24;;;;;;;103.58;43.95;;;;;;;0.36;81.88;101682.45;1702361;82;20938;-77
2022/12/04 00:06:16;;;;;;;109.85;46.08;;;;;;;0.36;81.92;101680.31;1700230;83;20916;-76
2022/12/04 00:09:02;;;;;;;110.00;44.03;;;;;;;0.35;81.92;101675.62;1701077;84;20914;-76
2022/12/04 00:11:47;;;;;;;105.05;43.42;;;;;;;0.35;81.99;101667.13;1702818;83;21044;-77
2022/12/04 00:14:32;;;;;;;101.07;43.60;;;;;;;0.35;81.98;101669.27;1703262;82;20922;-77
2022/12/04 00:17:17;;;;;;;108.27;43.08;;;;;;;0.36;82.03;101665.91;1702202;82;20954;-76
2022/12/04 00:20:02;;;;;;;105.95;42.75;;;;;;;0.37;82.02;101667.66;1703610;83;20905;-77
2022/12/04 00:22:47;;;;;;;102.13;43.00;;;;;;;0.38;82.00;101670.66;1704219;82;20902;-77
2022/12/04 00:25:32;;;;;;;96.55;42.88;;;;;;;0.39;82.05;101667.72;1701886;82;21102;-77
2022/12/04 00:28:18;;;;;;;106.78;42.43;;;;;;;0.40;82.07;101664.37;1703307;82;21401;-77
2022/12/04 00:31:10;;;;;;;96.72;41.05;;;;;;;0.39;82.08;101664.77;1701478;83;20941;-75
2022/12/04 00:33:54;;;;;;;92.02;39.33;;;;;;;0.40;82.10;101672.00;1702423;82;21457;-77
2022/12/04 00:36:39;;;;;;;90.80;40.15;;;;;;;0.41;82.11;101668.25;1703225;83;21406;-77
2022/12/04 00:39:24;;;;;;;96.32;40.05;;;;;;;0.42;82.15;101669.98;1703851;82;20930;-76
2022/12/04 00:42:09;;;;;;;92.10;38.50;;;;;;;0.43;82.18;101667.91;1701778;82;20954;-76
2022/12/04 00:44:54;;;;;;;93.47;40.43;;;;;;;0.43;82.17;101671.72;1700597;82;20914;-76
2022/12/04 00:47:39;;;;;;;94.03;38.23;;;;;;;0.45;82.21;101667.57;1701515;82;20942;-77
2022/12/04 00:50:24;;;;;;;91.00;38.90;;;;;;;0.47;82.20;101656.19;1702475;82;20934;-77
2022/12/04 00:53:09;;;;;;;93.45;38.28;;;;;;;0.48;82.22;101653.70;1702394;83;20934;-78
2022/12/04 00:55:54;;;;;;;92.72;39.60;;;;;;;0.49;82.24;101653.30;1700152;83;20946;-77
2022/12/04 00:58:41;;;;;;;96.37;37.03;;;;;;;0.50;82.29;101644.45;1628860;86;20965;-76
2022/12/04 01:01:27;;;;;;;89.80;37.48;;;;;;;0.52;82.30;101645.80;1624713;86;21414;-77
2022/12/04 01:04:12;;;;;;;;;;;;;;;0.52;82.30;101639.00;1629211;86;21836;-77
2022/12/04 01:06:56;;;;;;;84.35;36.28;;;;;;;0.53;82.42;101639.47;1667989;84;20139;-77
2022/12/04 01:09:41;;;;;;;90.10;36.55;;;;;;;0.55;82.40;101642.07;1646276;86;20975;-76
2022/12/04 01:12:26;;;;;;;98.17;37.80;;;;;;;0.55;82.39;101639.12;1671928;84;20974;-76
2022/12/04 01:15:13;;;;;;;97.12;38.92;;;;;;;0.56;82.45;101642.13;1646331;86;20947;-77
2022/12/04 01:17:58;;;;;;;88.67;37.70;;;;;;;0.57;82.48;101645.14;1635499;86;21011;-76
2022/12/04 01:20:51;;;;;;;94.85;37.67;;;;;;;0.58;82.48;101639.66;1700044;83;21598;-77
2022/12/04 01:23:36;;;;;;;102.47;39.42;;;;;;;0.59;82.50;101640.12;1701702;83;21552;-77
2022/12/04 01:26:22;;;;;;;87.00;35.88;;;;;;;0.61;82.52;101641.92;1701291;82;20898;-77
2022/12/04 01:29:07;;;;;;;101.05;40.67;;;;;;;0.61;82.50;101635.56;1702693;82;20930;-77
2022/12/04 01:31:52;;;;;;;92.45;38.80;;;;;;;0.61;82.54;101638.10;1700192;83;21399;-77
2022/12/04 01:34:37;;;;;;;103.32;40.85;;;;;;;0.64;82.57;101636.09;1700502;82;21233;-77
2022/12/04 01:37:22;;;;;;;99.42;39.65;;;;;;;0.66;82.58;101637.02;1700589;83;20949;-76
2022/12/04 01:40:14;;;;;;;103.78;38.63;;;;;;;0.66;82.60;101640.43;1702147;82;20979;-77
2022/12/04 01:42:59;;;;;;;105.55;40.23;;;;;;;0.66;82.59;101644.66;1703114;82;21422;-76
2022/12/04 01:45:48;;;;;;;90.80;36.83;;;;;;;0.68;82.65;101635.81;1699779;82;21381;-76
2022/12/04 01:48:40;;;;;;;100.47;38.70;;;;;;;0.69;82.64;101632.45;1702787;81;20955;-77
2022/12/04 01:51:30;;;;;;;94.80;36.50;;;;;;;0.70;82.67;101627.83;1697943;83;20921;-76
2022/12/04 01:54:27;;;;;;;100.90;38.23;;;;;;;0.72;82.72;101632.58;1699838;82;20917;-76
2022/12/04 01:57:21;;;;;;;110.45;38.65;;;;;;;0.73;82.71;101633.91;1699857;82;21419;-77
2022/12/04 02:00:12;;;;;;;97.97;38.08;;;;;;;0.74;82.72;101629.69;1701273;83;20946;-77
2022/12/04 02:02:58;;;;;;;106.87;40.08;;;;;;;0.74;82.69;101625.88;1698588;83;20937;-77
2022/12/04 02:05:43;;;;;;;104.20;40.63;;;;;;;0.76;82.74;101630.62;1700398;83;21960;-77
2022/12/04 02:08:28;;;;;;;105.17;39.42;;;;;;;0.75;82.79;101634.84;1701186;82;20937;-76
2022/12/04 02:11:21;;;;;;;110.63;40.67;;;;;;;0.77;82.79;101633.63;1700550;83;21319;-77
2022/12/04 02:14:35;;;;;;;116.05;40.85;;;;;;;0.78;82.81;101634.97;1701330;82;20955;-77
2022/12/04 02:17:43;;;;;;;107.60;40.25;;;;;;;0.80;82.81;101634.63;1700918;83;21373;-77
2022/12/04 02:20:48;;;;;;;107.75;40.05;;;;;;;0.80;82.80;101624.44;1701131;83;21564;-77
2022/12/04 02:24:11;;;;;;;100.92;37.03;;;;;;;0.80;82.86;101624.84;1700830;83;20981;-77
2022/12/04 02:27:06;;;;;;;113.05;39.50;;;;;;;0.81;82.87;101634.22;1678379;84;20909;-77
2022/12/04 02:30:10;;;;;;;102.27;38.80;;;;;;;0.80;82.92;101624.84;1701723;83;21470;-77
2022/12/04 02:33:15;;;;;;;110.17;40.05;;;;;;;0.81;82.93;101621.09;1665219;82;21018;-76
2022/12/04 02:36:10;;;;;;;112.50;42.50;;;;;;;0.81;82.95;101616.40;1700443;82;20977;-77
2022/12/04 02:39:06;;;;;;;117.77;40.20;;;;;;;0.82;83.00;101619.41;1706499;81;20941;-77
2022/12/04 02:42:02;;;;;;;116.12;40.95;;;;;;;0.83;83.01;101617.33;1671183;82;20930;-77
2022/12/04 02:45:03;;;;;;;125.80;43.28;;;;;;;0.83;83.02;101612.23;1702505;82;20906;-76
2022/12/04 02:47:48;;;;;;;113.05;40.00;;;;;;;0.83;83.03;101604.59;1702582;83;21418;-77
2022/12/04 02:50:37;;;;;;;113.97;41.00;;;;;;;0.83;83.02;101600.78;1668443;84;20981;-77
2022/12/04 02:53:35;;;;;;;102.00;39.30;;;;;;;0.84;83.07;101602.52;1629830;86;21477;-77
2022/12/04 02:56:27;;;;;;;117.13;42.15;;;;;;;0.85;83.03;101597.89;1640710;86;20943;-77
2022/12/04 02:59:26;;;;;;;115.40;40.63;;;;;;;0.85;83.09;101597.48;1700170;82;20890;-76
2022/12/04 03:02:31;;;;;;;117.15;42.30;;;;;;;0.86;83.06;101598.36;1701766;83;20985;-77
2022/12/04 03:05:20;;;;;;;112.65;42.45;;;;;;;0.86;83.15;101595.41;1668316;83;21009;-77
2022/12/04 03:08:13;;;;;;;123.13;42.60;;;;;;;0.87;83.15;101583.14;1701794;83;21462;-77
2022/12/04 03:11:00;;;;;;;109.80;40.33;;;;;;;0.87;83.19;101589.91;1700549;82;21020;-77
2022/12/04 03:13:56;;;;;;;118.13;41.73;;;;;;;0.86;83.22;101585.63;1699227;82;21345;-77
2022/12/04 03:16:42;;;;;;;114.50;40.73;;;;;;;0.88;83.23;101585.28;1701195;84;20934;-77
2022/12/04 03:19:35;;;;;;;115.85;43.40;;;;;;;0.87;83.23;101586.95;1703277;82;21026;-77
2022/12/04 03:22:22;;;;;;;114.45;39.85;;;;;;;0.88;83.27;101591.64;1699555;82;20945;-77
2022/12/04 03:25:09;;;;;;;124.42;42.62;;;;;;;0.90;83.31;101593.84;1704452;82;20957;-77
2022/12/04 03:27:59;;;;;;;123.07;42.83;;;;;;;0.91;83.29;101593.91;1699233;82;20930;-77
2022/12/04 03:30:49;;;;;;;126.80;43.55;;;;;;;0.91;83.30;101593.91;1703737;82;20921;-76
2022/12/04 03:33:38;;;;;;;118.95;41.15;;;;;;;0.92;83.36;101596.05;1684054;83;21396;-77
2022/12/04 03:36:47;;;;;;;126.72;42.83;;;;;;;0.93;83.38;101590.15;1703173;83;20894;-76
2022/12/04 03:39:52;;;;;;;120.77;40.80;;;;;;;0.93;83.37;101588.47;1703282;83;21358;-77
2022/12/04 03:42:41;;;;;;;116.12;42.38;;;;;;;0.94;83.39;101591.88;1702609;83;21430;-77
2022/12/04 03:45:32;;;;;;;117.08;41.60;;;;;;;0.95;83.46;101588.53;1705155;82;20906;-77
2022/12/04 03:48:41;;;;;;;110.78;40.85;;;;;;;0.95;83.44;101581.76;1702051;82;20922;-77
2022/12/04 03:51:34;;;;;;;112.68;40.67;;;;;;;0.97;83.46;101582.69;1703062;83;20933;-77
2022/12/04 03:54:30;;;;;;;112.88;39.23;;;;;;;0.98;83.45;101578.46;1699670;83;20905;-77
2022/12/04 03:57:20;;;;;;;105.37;37.98;;;;;;;0.98;83.48;101575.91;1701902;82;20972;-77
2022/12/04 04:00:18;;;;;;;120.25;40.20;;;;;;;0.97;83.51;101569.95;1702463;82;20930;-77
2022/12/04 04:03:14;;;;;;;107.03;39.92;;;;;;;0.98;83.53;101565.33;1702456;82;21711;-77
2022/12/04 04:06:02;;;;;;;;;;;;;;;1.00;83.57;101570.48;1705776;82;20951;-77
2022/12/04 04:08:51;;;;;;;111.00;38.92;;;;;;;0.98;83.71;101553.86;1696570;82;20131;-77
2022/12/04 04:11:53;;;;;;;96.08;37.38;;;;;;;0.99;83.61;101560.69;1702019;82;21403;-77
2022/12/04 04:24:15;;;;;;;87.02;36.75;;;;;;;1.05;83.72;101566.80;1701291;82;20910;-77
2022/12/04 04:27:01;;;;;;;108.95;38.23;;;;;;;1.05;83.69;101570.62;1701093;82;21347;-77
2022/12/04 04:29:45;;;;;;;112.72;39.10;;;;;;;1.05;83.72;101570.21;1702110;83;20945;-77
2022/12/04 04:32:54;;;;;;;99.97;38.92;;;;;;;1.08;83.77;101572.87;1698411;83;20992;-77
2022/12/04 04:36:05;;;;;;;97.05;37.88;;;;;;;1.09;83.73;101573.74;1700791;82;21536;-77
2022/12/04 04:39:19;;;;;;;87.10;36.03;;;;;;;1.09;83.74;101573.74;1701368;83;20897;-77
2022/12/04 04:42:12;;;;;;;104.97;38.63;;;;;;;1.11;83.81;101583.58;1699958;83;21541;-77
2022/12/04 04:45:11;;;;;;;88.92;35.92;;;;;;;1.10;83.78;101577.62;1704798;83;20926;-77
2022/12/04 04:48:15;;;;;;;87.15;34.50;;;;;;;1.11;83.81;101570.84;1699692;82;21516;-77
2022/12/04 04:51:02;;;;;;;99.52;35.75;;;;;;;1.12;83.79;101568.77;1702876;82;21326;-77
2022/12/04 04:53:55;;;;;;;93.55;35.55;;;;;;;1.12;83.79;101564.54;1679347;83;21504;-77
2022/12/04 04:56:43;;;;;;;89.45;36.98;;;;;;;1.12;83.82;101566.22;1701846;82;20988;-77
2022/12/04 04:59:27;;;;;;;94.17;36.03;;;;;;;1.14;83.85;101565.47;1701670;82;21369;-77
2022/12/04 05:02:12;;;;;;;93.58;37.98;;;;;;;1.15;83.85;101562.11;1702978;83;21521;-77
2022/12/04 05:04:57;;;;;;;89.70;37.17;;;;;;;1.17;83.87;101572.35;1700870;83;20956;-77
2022/12/04 05:07:42;;;;;;;91.72;36.60;;;;;;;1.17;83.91;101574.50;1702575;83;21379;-77
2022/12/04 05:10:27;;;;;;;93.97;37.73;;;;;;;1.19;83.92;101569.45;1700813;83;20906;-77
2022/12/04 05:13:13;;;;;;;95.65;38.05;;;;;;;1.20;83.89;101565.70;1701811;84;20930;-77
2022/12/04 05:16:05;;;;;;;96.40;38.17;;;;;;;1.20;83.88;101564.83;1702625;82;21401;-77
2022/12/04 05:21:55;;;;;;;93.22;37.75;;;;;;;1.23;84.00;101571.31;1702792;83;20906;-77
2022/12/04 05:24:40;;;;;;;94.62;37.83;;;;;;;1.23;83.98;101568.36;1703637;83;21310;-77
2022/12/04 05:27:27;;;;;;;101.38;40.08;;;;;;;1.23;83.97;101572.18;1703047;83;21394;-77
2022/12/04 05:30:12;;;;;;;92.42;38.10;;;;;;;1.22;84.00;101570.44;1703033;81;20909;-77
2022/12/04 05:32:57;;;;;;;99.20;37.48;;;;;;;1.25;84.01;101561.64;1701699;83;21516;-77
2022/12/04 05:35:42;;;;;;;98.25;38.45;;;;;;;1.25;84.06;101568.41;1702389;83;20898;-77
2022/12/04 05:38:27;;;;;;;99.37;38.10;;;;;;;1.26;84.06;101576.11;1701152;83;21027;-77
2022/12/04 05:41:12;;;;;;;94.92;38.25;;;;;;;1.28;84.08;101574.89;1701207;82;20921;-77
2022/12/04 05:43:57;;;;;;;102.45;37.42;;;;;;;1.28;84.07;101570.67;1703042;82;20953;-77
2022/12/04 05:46:42;;;;;;;90.35;37.50;;;;;;;1.28;84.07;101567.25;1701092;83;20934;-77
2022/12/04 05:49:32;;;;;;;93.75;38.75;;;;;;;1.28;84.09;101568.12;1700296;82;21488;-77
2022/12/04 05:52:16;;;;;;;104.38;39.27;;;;;;;1.30;84.13;101570.72;1702274;83;20898;-77
2022/12/04 05:55:01;;;;;;;99.25;36.55;;;;;;;1.31;84.15;101568.64;1702019;83;21516;-77
2022/12/04 05:57:46;;;;;;;95.72;37.42;;;;;;;1.31;84.10;101563.55;1702552;82;20941;-77
2022/12/04 06:00:31;;;;;;;97.82;39.00;;;;;;;1.30;84.11;101563.95;1699616;82;20930;-77
2022/12/04 06:03:16;;;;;;;88.97;35.88;;;;;;;1.32;84.14;101572.92;1699725;83;20953;-77
2022/12/04 06:06:01;;;;;;;97.62;38.55;;;;;;;1.32;84.15;101575.47;1702619;82;20926;-77
2022/12/04 06:08:47;;;;;;;91.80;37.13;;;;;;;1.33;84.20;101575.94;1702283;83;20949;-77
2022/12/04 06:11:36;;;;;;;95.55;39.08;;;;;;;1.33;84.19;101576.80;1691651;82;20898;-77
2022/12/04 06:14:21;;;;;;;85.55;35.48;;;;;;;1.34;84.23;101575.13;1699648;83;21509;-77
2022/12/04 06:17:06;;;;;;;84.03;35.58;;;;;;;1.36;84.23;101583.69;1700731;83;21435;-77
2022/12/04 06:19:52;;;;;;;91.85;37.17;;;;;;;1.36;84.26;101584.09;1701347;83;20949;-77
2022/12/04 06:22:36;;;;;;;91.05;37.98;;;;;;;1.37;84.26;101593.48;1701285;82;20929;-77
2022/12/04 06:25:21;;;;;;;91.32;36.98;;;;;;;1.37;84.31;101593.48;1702126;83;21216;-77
2022/12/04 06:28:07;;;;;;;86.17;35.38;;;;;;;1.37;84.31;101590.93;1702239;82;21382;-77
2022/12/04 06:30:52;;;;;;;82.42;36.35;;;;;;;1.38;84.31;101595.22;1701838;83;20969;-77
2022/12/04 06:33:37;;;;;;;88.12;37.08;;;;;;;1.38;84.32;101584.62;1701215;83;21497;-77
2022/12/04 06:36:22;;;;;;;95.28;37.08;;;;;;;1.39;84.34;101581.66;1699597;82;20937;-77
2022/12/04 06:39:08;;;;;;;90.42;36.98;;;;;;;1.40;84.34;101580.44;1702049;82;21522;-77
2022/12/04 06:41:53;;;;;;;89.17;34.60;;;;;;;1.39;84.37;101578.70;1703457;83;20933;-77
2022/12/04 06:44:38;;;;;;;77.97;33.25;;;;;;;1.41;84.39;101582.18;1695416;83;21524;-77
2022/12/04 06:47:23;;;;;;;79.67;33.10;;;;;;;1.42;84.40;101581.77;1701940;83;21275;-77
2022/12/04 06:50:08;;;;;;;90.97;36.08;;;;;;;1.41;84.39;101581.31;1703479;84;20894;-77
2022/12/04 06:52:53;;;;;;;79.60;35.05;;;;;;;1.43;84.43;101589.87;1703657;81;21422;-77
2022/12/04 06:55:38;;;;;;;76.05;33.08;;;;;;;1.44;84.46;101592.89;1700195;83;20905;-77
2022/12/04 06:58:24;;;;;;;82.53;34.53;;;;;;;1.44;84.39;101590.34;1702419;83;20945;-77
2022/12/04 07:01:12;;;;;;;85.77;34.83;;;;;;;1.43;84.42;101593.70;1704759;82;20965;-77
2022/12/04 07:03:58;;;;;;;74.77;32.38;;;;;;;1.42;84.46;101584.32;1702545;82;21564;-77
2022/12/04 07:06:43;;;;;;;83.35;33.85;;;;;;;1.41;84.50;101584.73;1698849;83;21426;-77
2022/12/04 07:09:28;;;;;;;74.72;32.73;;;;;;;1.42;84.54;101581.77;1633439;85;21309;-77
2022/12/04 07:12:13;;;;;;;76.02;32.60;;;;;;;1.43;84.54;101583.52;1704167;83;21530;-77
2022/12/04 07:14:58;;;;;;;73.12;31.33;;;;;;;1.44;84.52;101587.80;1700215;83;20955;-77
2022/12/04 07:17:43;;;;;;;78.07;33.05;;;;;;;1.45;84.56;101586.98;1704089;82;20918;-77
2022/12/04 07:20:28;;;;;;;70.90;30.17;;;;;;;1.47;84.65;101585.36;1702915;83;20945;-77
2022/12/04 07:23:13;;;;;;;73.83;31.17;;;;;;;1.50;84.62;101582.92;1703232;83;20909;-77
2022/12/04 07:26:00;;;;;;;71.97;30.23;;;;;;;1.48;84.57;101578.17;1702559;83;20933;-77
2022/12/04 07:28:45;;;;;;;65.85;29.35;;;;;;;1.49;84.60;101590.11;1704337;81;20938;-77
2022/12/04 07:31:30;;;;;;;68.28;29.72;;;;;;;1.50;84.60;101585.47;1703157;82;21383;-76
2022/12/04 07:34:15;;;;;;;67.97;28.60;;;;;;;1.51;84.65;101585.94;1703410;81;20913;-77
2022/12/04 07:37:00;;;;;;;69.20;27.27;;;;;;;1.53;84.66;101589.41;1699358;82;20957;-77
2022/12/04 07:39:45;;;;;;;68.87;29.72;;;;;;;1.54;84.65;101590.73;1697722;82;21009;-77
2022/12/04 07:42:30;;;;;;;67.85;28.07;;;;;;;1.54;84.67;101589.46;1701054;82;21394;-77
2022/12/04 07:45:15;;;;;;;66.20;28.62;;;;;;;1.55;84.66;101590.33;1700078;82;20886;-77
2022/12/04 07:47:59;;;;;;;61.63;28.05;;;;;;;1.56;84.67;101589.08;1702396;82;21410;-77
2022/12/04 07:50:44;;;;;;;56.55;27.25;;;;;;;1.56;84.69;101589.08;1698901;83;21553;-77
2022/12/04 07:53:29;;;;;;;69.65;27.55;;;;;;;1.57;84.69;101601.41;1700355;83;20893;-77
2022/12/04 07:56:15;;;;;;;68.60;29.98;;;;;;;1.58;84.69;101598.05;1700385;83;20909;-77
2022/12/04 07:59:00;;;;;;;70.25;30.95;;;;;;;1.57;84.71;101601.01;1700149;82;20978;-77
2022/12/04 08:01:45;;;;;;;65.90;28.97;;;;;;;1.57;84.72;101599.73;1701922;82;21512;-77
2022/12/04 08:04:30;;;;;;;60.45;27.42;;;;;;;1.60;84.74;101596.42;1701410;82;20945;-77
2022/12/04 08:07:15;;;;;;;63.00;27.62;;;;;;;1.59;84.70;101601.93;1698384;81;21524;-77
2022/12/04 08:10:00;;;;;;;65.40;27.93;;;;;;;1.58;84.79;101592.55;1700470;82;20917;-77
2022/12/04 08:12:45;;;;;;;62.35;27.70;;;;;;;1.59;84.81;101595.56;1702130;82;20938;-77
2022/12/04 08:15:30;;;;;;;59.27;28.15;;;;;;;1.60;84.84;101594.75;1700699;81;20974;-77
2022/12/04 08:18:15;;;;;;;68.60;28.85;;;;;;;1.61;84.82;101593.06;1702457;82;21421;-77
2022/12/04 08:21:12;;;;;;;66.22;29.90;;;;;;;1.61;84.95;101590.11;1701989;82;20953;-77
2022/12/04 08:23:59;;;;;;;59.58;26.55;;;;;;;1.62;84.87;101591.84;1702501;81;21576;-77
2022/12/04 08:26:43;;;;;;;56.05;27.80;;;;;;;1.63;84.86;101583.80;1702307;82;21390;-77
2022/12/04 08:29:28;;;;;;;60.75;30.68;;;;;;;1.64;84.87;101586.80;1699289;82;20886;-77
2022/12/04 08:32:13;;;;;;;62.93;29.00;;;;;;;1.64;84.92;101583.84;1701403;82;21029;-78
2022/12/04 08:34:58;;;;;;;68.45;29.75;;;;;;;1.67;84.94;101588.19;1701792;82;20894;-78
2022/12/04 08:37:43;;;;;;;69.92;31.25;;;;;;;1.70;84.95;101588.30;1706482;82;20945;-77
2022/12/04 08:40:28;;;;;;;69.37;31.97;;;;;;;1.73;84.99;101587.54;1706651;82;21471;-77
2022/12/04 08:43:13;;;;;;;70.08;30.80;;;;;;;1.76;85.02;101588.52;1705280;83;21386;-80
2022/12/04 08:46:03;;;;;;;69.25;31.07;;;;;;;1.78;84.99;101588.16;1691110;82;20973;-80
2022/12/04 08:48:48;;;;;;;76.12;31.27;;;;;;;1.80;85.00;101588.22;1708501;82;20929;-80
2022/12/04 08:51:36;;;;;;;69.27;29.92;;;;;;;1.82;85.01;101591.28;1708927;83;20906;-80
2022/12/04 08:54:20;;;;;;;70.00;31.33;;;;;;;1.86;85.02;101601.19;1708166;83;20937;-81
2022/12/04 08:57:06;;;;;;;80.42;33.70;;;;;;;1.87;85.04;101603.78;1708316;83;20906;-81
2022/12/04 08:59:50;;;;;;;86.00;34.03;;;;;;;1.89;85.04;101610.22;1706036;83;20950;-80
2022/12/04 09:02:35;;;;;;;66.15;30.95;;;;;;;1.90;85.05;101609.41;1705797;82;20913;-80
2022/12/04 09:05:20;;;;;;;66.77;30.85;;;;;;;1.91;85.05;101606.04;1706871;83;20910;-81
2022/12/04 09:08:05;;;;;;;67.45;30.45;;;;;;;1.92;85.08;101611.19;1709417;83;20973;-81
2022/12/04 09:10:50;;;;;;;66.55;29.77;;;;;;;1.95;85.09;101609.16;1707630;83;21123;-80
2022/12/04 09:13:36;;;;;;;70.72;31.23;;;;;;;1.97;85.04;101611.35;1705850;83;21091;-80
2022/12/04 09:16:23;;;;;;;78.30;34.50;;;;;;;1.99;85.09;101603.34;1705682;82;21552;-80
2022/12/04 09:19:08;;;;;;;79.05;32.33;;;;;;;2.02;85.14;101605.14;1709469;82;20902;-80
2022/12/04 09:21:53;;;;;;;70.80;31.80;;;;;;;2.03;85.17;101603.91;1706984;83;21076;-83
2022/12/04 09:24:39;;;;;;;66.85;30.88;;;;;;;2.04;85.12;101607.33;1705349;83;21497;-81
2022/12/04 09:27:24;;;;;;;69.97;30.00;;;;;;;2.07;85.19;101603.61;1636494;85;21144;-82
2022/12/04 09:30:11;;;;;;;67.53;30.55;;;;;;;2.11;85.21;101610.11;1626925;85;21144;-77
2022/12/04 09:32:56;;;;;;;76.20;31.85;;;;;;;2.12;85.17;101607.16;1649675;84;21093;-76
2022/12/04 09:35:41;;;;;;;71.85;32.67;;;;;;;2.15;85.21;101615.78;1648402;86;21057;-76
2022/12/04 09:38:28;;;;;;;75.22;31.90;;;;;;;2.17;85.22;101614.16;1645363;85;21525;-77
2022/12/04 09:41:37;;;;;;;71.80;32.15;;;;;;;2.17;85.20;101617.11;1647278;85;21098;-77
2022/12/04 09:44:36;;;;;;;71.67;31.87;;;;;;;2.17;85.21;101607.77;1648616;85;21121;-77
2022/12/04 09:47:42;;;;;;;69.77;30.85;;;;;;;2.18;85.23;101613.34;1654124;86;21048;-77
2022/12/04 09:50:45;;;;;;;65.97;29.48;;;;;;;2.18;85.24;101608.64;1654481;84;21065;-77
2022/12/04 09:53:43;;;;;;;79.58;32.67;;;;;;;2.20;85.27;101609.56;1652128;85;21098;-76
2022/12/04 09:56:30;;;;;;;82.00;35.95;;;;;;;2.20;85.23;101610.84;1652312;84;21029;-77
2022/12/04 09:59:22;;;;;;;76.72;33.70;;;;;;;2.22;85.31;101606.66;1653324;84;21763;-77
2022/12/04 10:02:38;;;;;;;79.85;34.90;;;;;;;2.23;85.31;101610.94;1652330;84;21569;-77
2022/12/04 10:05:38;;;;;;;76.92;33.00;;;;;;;2.25;85.34;101600.38;1656950;84;21096;-80
2022/12/04 10:08:39;;;;;;;73.62;32.50;;;;;;;2.27;85.34;101597.47;1656652;84;21113;-80
2022/12/04 10:11:38;;;;;;;78.28;33.28;;;;;;;2.29;85.35;101590.33;1655957;84;21519;-80
2022/12/04 10:14:38;;;;;;;74.55;33.90;;;;;;;2.32;85.37;101578.08;1621253;85;21569;-79
2022/12/04 10:17:56;;;;;;;72.10;32.33;;;;;;;2.35;85.36;101579.86;1652849;85;21101;-80
2022/12/04 10:21:04;;;;;;;79.62;34.25;;;;;;;2.37;85.37;101576.95;1704010;82;21115;-80
2022/12/04 10:24:17;;;;;;;76.07;33.75;;;;;;;2.36;85.36;101576.49;1705524;82;21127;-79
2022/12/04 10:27:30;;;;;;;69.12;32.78;;;;;;;2.36;85.36;101570.11;1704092;82;21019;-80
2022/12/04 10:30:27;;;;;;;75.90;33.05;;;;;;;2.37;85.37;101565.06;1703969;82;21381;-80
2022/12/04 10:33:44;;;;;;;82.41;38.42;;;;;;;2.40;85.26;101564.29;1503040;82;25644832;-79
2022/12/04 10:36:33;;;;;;;76.77;34.75;;;;;;;2.40;85.26;101564.29;1709773;82;22065;-80
2022/12/04 10:39:29;;;;;;;83.52;36.50;;;;;;;2.41;85.39;101556.69;1707437;82;20945;-80
2022/12/04 10:42:38;;;;;;;77.50;33.95;;;;;;;2.47;85.51;101563.67;1704452;82;21032;-80
2022/12/04 10:45:23;;;;;;;81.95;36.93;;;;;;;2.48;85.45;101566.27;1705435;82;21540;-80
2022/12/04 10:48:19;;;;;;;84.10;34.73;;;;;;;2.50;85.44;101572.30;1707454;82;21084;-80
2022/12/04 10:51:04;;;;;;;75.22;34.50;;;;;;;2.50;85.43;101565.05;1706636;82;21679;-80
2022/12/04 10:53:50;;;;;;;73.40;33.42;;;;;;;2.51;85.50;101563.82;1704456;83;21052;-80
2022/12/04 10:56:35;;;;;;;74.50;34.25;;;;;;;2.53;85.48;101563.45;1704603;82;21576;-80
2022/12/04 10:59:21;;;;;;;83.92;35.58;;;;;;;2.56;85.46;101565.24;1704555;82;21040;-80
2022/12/04 11:02:25;;;;;;;72.12;32.80;;;;;;;2.57;85.49;101566.56;1704474;82;21057;-80
2022/12/04 11:05:28;;;;;;;80.17;35.25;;;;;;;2.58;85.48;101563.20;1706768;82;21072;-80
2022/12/04 11:08:23;;;;;;;77.12;35.15;;;;;;;2.58;85.50;101567.03;1703316;83;21076;-80
2022/12/04 11:11:14;;;;;;;72.67;33.95;;;;;;;2.57;85.47;101569.13;1705690;82;21100;-80
2022/12/04 11:14:18;;;;;;;71.70;33.48;;;;;;;2.57;85.53;101564.02;1705928;80;21056;-79
2022/12/04 11:17:05;;;;;;;79.45;36.77;;;;;;;2.59;85.53;101557.68;1706488;83;21040;-80
2022/12/04 11:20:08;;;;;;;72.53;32.08;;;;;;;2.62;85.55;101544.98;1706800;82;21037;-80
2022/12/04 11:22:58;;;;;;;79.35;34.30;;;;;;;2.62;85.52;101543.30;1703609;82;21088;-80
2022/12/04 11:25:51;;;;;;;75.45;33.02;;;;;;;2.61;85.56;101550.49;1704317;83;21068;-80
2022/12/04 11:28:39;;;;;;;71.22;32.40;;;;;;;2.61;85.56;101547.94;1704656;83;20941;-80
2022/12/04 11:31:24;;;;;;;75.20;33.48;;;;;;;2.63;85.56;101539.05;1704707;82;21068;-80
2022/12/04 11:34:19;;;;;;;77.20;34.58;;;;;;;2.67;85.62;101538.33;1706197;83;21369;-80
2022/12/04 11:37:06;;;;;;;68.80;33.18;;;;;;;2.69;85.58;101534.14;1705766;83;21418;-80
2022/12/04 11:39:52;;;;;;;73.20;32.25;;;;;;;2.69;85.55;101532.86;1708614;83;20957;-80
2022/12/04 11:42:36;;;;;;;73.47;32.42;;;;;;;2.69;85.58;101531.58;1708850;83;21426;-80
2022/12/04 11:45:23;;;;;;;67.80;32.10;;;;;;;2.70;85.58;101521.83;1706555;82;21223;-80
2022/12/04 11:48:21;;;;;;;67.25;30.15;;;;;;;2.73;85.56;101529.98;1710161;82;20953;-80
2022/12/04 11:51:34;;;;;;;72.05;31.00;;;;;;;2.70;85.57;101524.38;1706926;82;21036;-80
2022/12/04 11:54:36;;;;;;;69.07;30.45;;;;;;;2.68;85.53;101526.02;1704889;82;21551;-80
2022/12/04 11:57:44;;;;;;;70.83;29.75;;;;;;;2.65;85.59;101522.96;1705772;81;21820;-80
2022/12/04 12:00:32;;;;;;;70.40;30.35;;;;;;;2.64;85.59;101521.23;1705805;82;21700;-80
2022/12/04 12:03:46;;;;;;;73.72;32.30;;;;;;;2.61;85.56;101517.30;1706187;82;21576;-80
2022/12/04 12:06:56;;;;;;;73.62;32.70;;;;;;;2.59;85.58;101512.59;1704039;82;21128;-79
2022/12/04 12:10:01;;;;;;;71.57;31.50;;;;;;;2.56;85.59;101518.88;1704883;82;21103;-77
2022/12/04 12:13:25;;;;;;;74.10;32.65;;;;;;;2.56;85.61;101523.12;1673445;82;26818;-77
2022/12/04 12:16:30;;;;;;;76.15;33.95;;;;;;;2.54;85.66;101528.59;1704555;83;21619;-77
2022/12/04 12:19:45;;;;;;;69.72;33.90;;;;;;;2.54;85.71;101526.03;1700721;82;21919;-77
2022/12/04 12:23:12;;;;;;;72.70;33.02;;;;;;;2.56;85.73;101528.22;1660181;82;21175;-78
2022/12/04 12:26:13;;;;;;;71.95;31.10;;;;;;;2.55;85.68;101519.70;1703612;82;21041;-81
2022/12/04 12:29:25;;;;;;;77.75;35.10;;;;;;;2.55;85.70;101515.88;1642850;85;21702;-80
2022/12/04 12:32:20;;;;;;;81.82;34.83;;;;;;;2.56;85.72;101507.39;1634122;85;21132;-80
2022/12/04 12:35:19;;;;;;;75.08;35.28;;;;;;;2.57;85.72;101512.09;1655071;84;21085;-80
2022/12/04 12:38:17;;;;;;;76.90;32.98;;;;;;;2.57;85.73;101512.95;1652321;84;21092;-80
2022/12/04 12:41:23;;;;;;;86.45;35.90;;;;;;;2.58;85.74;101513.82;1654725;84;21003;-78
2022/12/04 12:44:28;;;;;;;75.62;33.40;;;;;;;2.61;85.73;101508.77;1654591;84;21141;-78
2022/12/04 12:47:18;;;;;;;74.30;31.68;;;;;;;2.61;85.72;101515.16;1654500;84;21337;-78
2022/12/04 12:50:23;;;;;;;66.67;30.30;;;;;;;2.59;85.73;101511.73;1654334;84;21379;-78
2022/12/04 12:53:13;;;;;;;77.40;33.45;;;;;;;2.58;85.69;101518.52;1651797;84;22151;-78
2022/12/04 12:56:01;;;;;;;75.78;34.55;;;;;;;2.57;85.76;101519.34;1652923;84;21005;-78
2022/12/04 12:58:51;;;;;;;77.58;34.13;;;;;;;2.57;85.75;101514.23;1638795;85;21097;-78
2022/12/04 13:02:02;;;;;;;72.05;33.80;;;;;;;2.58;85.76;101509.99;1651242;84;21135;-78
2022/12/04 13:04:56;;;;;;;71.33;32.60;;;;;;;2.57;85.73;101506.98;1653512;84;21061;-80
2022/12/04 13:08:04;;;;;;;73.85;33.50;;;;;;;2.56;85.75;101498.86;1654969;84;21124;-81
2022/12/04 13:10:54;;;;;;;77.37;33.08;;;;;;;2.56;85.76;101490.80;1654210;84;21072;-80
2022/12/04 13:13:47;;;;;;;81.82;33.65;;;;;;;2.54;85.75;101489.88;1655598;84;21062;-81
2022/12/04 13:16:51;;;;;;;83.30;33.63;;;;;;;2.54;85.79;101488.61;1654330;86;21129;-81
2022/12/04 13:19:42;;;;;;;76.22;31.65;;;;;;;2.51;85.72;101484.69;1657038;83;21105;-81